createdAt,value
2018-06-23T00:02:29.649Z,26.80
2018-06-23T00:05:04.201Z,26.90
2018-06-23T00:07:38.719Z,26.90
2018-06-23T00:10:13.551Z,26.90
2018-06-23T00:12:48.039Z,26.90
2018-06-23T00:15:22.517Z,26.90
2018-06-23T00:17:57.062Z,26.90
2018-06-23T00:20:31.579Z,26.90
2018-06-23T00:23:06.293Z,26.80
2018-06-23T00:25:44.320Z,26.70
2018-06-23T00:28:18.801Z,26.70
2018-06-23T00:30:53.287Z,26.70
2018-06-23T00:33:27.759Z,26.70
2018-06-23T00:38:35.839Z,26.60
2018-06-23T00:41:11.500Z,26.70
2018-06-23T00:43:46.083Z,26.60
2018-06-23T00:46:20.647Z,26.70
2018-06-23T00:48:57.042Z,26.70
2018-06-23T00:51:31.540Z,26.70
2018-06-23T00:54:07.427Z,26.80
2018-06-23T00:56:41.927Z,26.90
2018-06-23T00:59:24.299Z,26.90
2018-06-23T01:01:59.051Z,26.90
2018-06-23T01:04:33.506Z,26.90
2018-06-23T01:09:40.927Z,26.90
2018-06-23T01:12:15.399Z,26.90
2018-06-23T01:14:49.920Z,26.90
2018-06-23T01:17:24.420Z,26.90
2018-06-23T01:19:59.555Z,26.90
2018-06-23T01:22:34.031Z,26.90
2018-06-23T01:25:08.550Z,26.90
2018-06-23T01:27:43.058Z,26.90
2018-06-23T01:30:18.795Z,26.90
2018-06-23T01:32:53.393Z,26.90
2018-06-23T01:35:27.892Z,26.90
2018-06-23T01:38:02.344Z,26.90
2018-06-23T01:40:36.792Z,26.90
2018-06-23T01:43:11.274Z,26.90
2018-06-23T01:45:46.079Z,26.90
2018-06-23T01:48:20.547Z,26.90
2018-06-23T01:50:55.934Z,26.90
2018-06-23T01:53:30.394Z,26.90
2018-06-23T01:56:04.914Z,27.00
2018-06-23T01:58:39.732Z,27.00
2018-06-23T02:01:14.213Z,27.00
2018-06-23T02:03:49.131Z,27.00
2018-06-23T02:06:23.678Z,27.00
2018-06-23T02:08:58.156Z,27.00
2018-06-23T02:11:33.013Z,27.00
2018-06-23T02:14:11.237Z,27.00
2018-06-23T02:16:49.485Z,27.00
2018-06-23T02:19:27.583Z,27.00
2018-06-23T02:22:05.583Z,27.00
2018-06-23T02:24:44.888Z,27.00
2018-06-23T02:27:23.127Z,27.10
2018-06-23T02:30:01.255Z,27.10
2018-06-23T02:32:39.490Z,27.10
2018-06-23T02:35:14.002Z,27.10
2018-06-23T02:37:48.975Z,27.10
2018-06-23T02:40:23.443Z,27.10
2018-06-23T02:42:57.930Z,27.10
2018-06-23T02:45:33.419Z,27.10
2018-06-23T02:48:07.945Z,27.20
2018-06-23T02:50:43.566Z,27.20
2018-06-23T02:53:18.049Z,27.20
2018-06-23T02:58:25.168Z,27.20
2018-06-23T03:00:59.744Z,27.20
2018-06-23T03:03:34.370Z,27.20
2018-06-23T03:06:08.945Z,27.20
2018-06-23T03:08:43.495Z,27.20
2018-06-23T03:11:17.987Z,27.30
2018-06-23T03:13:52.467Z,27.30
2018-06-23T03:16:27.216Z,27.30
2018-06-23T03:19:01.659Z,27.30
2018-06-23T03:21:36.183Z,27.30
2018-06-23T03:24:10.659Z,27.40
2018-06-23T03:26:45.171Z,27.40
2018-06-23T03:32:51.217Z,27.40
2018-06-23T03:35:24.311Z,27.40
2018-06-23T03:37:57.410Z,27.50
2018-06-23T03:40:30.416Z,27.50
2018-06-23T03:43:03.441Z,27.50
2018-06-23T03:45:36.518Z,27.50
2018-06-23T03:48:09.491Z,27.50
2018-06-23T03:50:42.529Z,27.50
2018-06-23T03:53:15.882Z,27.60
2018-06-23T03:55:48.965Z,27.60
2018-06-23T03:58:21.965Z,27.60
2018-06-23T04:00:59.411Z,27.60
2018-06-23T04:03:32.481Z,27.70
2018-06-23T04:06:05.424Z,27.70
2018-06-23T04:08:38.553Z,27.70
2018-06-23T04:11:11.739Z,27.70
2018-06-23T04:13:44.809Z,27.70
2018-06-23T04:16:17.831Z,27.70
2018-06-23T04:19:04.624Z,27.80
2018-06-23T04:21:37.699Z,27.80
2018-06-23T04:24:10.713Z,27.80
2018-06-23T04:26:43.848Z,27.80
2018-06-23T04:29:16.959Z,27.80
2018-06-23T04:31:50.036Z,27.80
2018-06-23T04:34:23.035Z,27.80
2018-06-23T04:36:56.178Z,27.90
2018-06-23T04:39:29.346Z,27.90
2018-06-23T04:42:02.403Z,27.90
2018-06-23T04:44:36.699Z,28.00
2018-06-23T04:47:09.777Z,28.00
2018-06-23T04:49:42.957Z,28.00
2018-06-23T04:52:16.089Z,28.00
2018-06-23T04:54:49.151Z,28.00
2018-06-23T04:57:23.126Z,28.00
2018-06-23T04:59:58.213Z,28.00
2018-06-23T05:02:31.412Z,28.00
2018-06-23T05:05:04.501Z,28.00
2018-06-23T05:07:37.698Z,28.00
2018-06-23T05:10:10.883Z,28.00
2018-06-23T05:12:43.937Z,28.00
2018-06-23T05:15:16.993Z,28.10
2018-06-23T05:17:49.988Z,28.10
2018-06-23T05:20:23.060Z,28.10
2018-06-23T05:22:56.061Z,28.10
2018-06-23T05:25:29.139Z,28.10
2018-06-23T05:28:02.201Z,28.10
2018-06-23T05:30:35.319Z,28.20
2018-06-23T05:33:08.484Z,28.20
2018-06-23T05:35:41.596Z,28.20
2018-06-23T05:38:14.640Z,28.20
2018-06-23T05:40:47.819Z,28.20
2018-06-23T05:43:20.920Z,28.20
2018-06-23T05:45:54.113Z,28.20
2018-06-23T05:48:27.319Z,28.20
2018-06-23T05:51:00.465Z,28.30
2018-06-23T05:53:33.564Z,28.30
2018-06-23T05:56:06.653Z,28.30
2018-06-23T05:58:39.851Z,28.30
2018-06-23T06:01:12.904Z,28.30
2018-06-23T06:03:45.851Z,28.30
2018-06-23T06:06:18.993Z,28.30
2018-06-23T06:08:52.086Z,28.30
2018-06-23T06:11:25.048Z,28.30
2018-06-23T06:13:58.104Z,28.40
2018-06-23T06:16:43.199Z,28.30
2018-06-23T06:19:16.336Z,28.40
2018-06-23T06:21:49.379Z,28.40
2018-06-23T06:24:22.444Z,28.30
2018-06-23T06:45:37.298Z,28.50
2018-06-23T06:48:10.451Z,28.50
2018-06-23T06:50:43.612Z,28.50
2018-06-23T06:53:16.590Z,28.50
2018-06-23T06:55:49.738Z,28.50
2018-06-23T06:58:22.795Z,28.50
2018-06-23T07:00:55.820Z,28.50
2018-06-23T07:03:28.806Z,28.50
2018-06-23T07:06:01.894Z,28.50
2018-06-23T07:08:34.939Z,28.50
2018-06-23T07:11:07.951Z,28.50
2018-06-23T07:13:41.264Z,28.50
2018-06-23T07:16:14.289Z,28.60
2018-06-23T07:18:47.334Z,28.60
2018-06-23T07:21:20.588Z,28.50
2018-06-23T07:23:53.655Z,28.60
2018-06-23T07:26:26.758Z,28.60
2018-06-23T07:28:59.865Z,28.50
2018-06-23T07:31:33.034Z,28.60
2018-06-23T07:34:07.596Z,28.60
2018-06-23T07:36:40.748Z,28.60
2018-06-23T07:39:14.109Z,28.60
2018-06-23T07:41:48.027Z,28.60
2018-06-23T07:44:22.169Z,28.60
2018-06-23T07:46:55.645Z,28.60
2018-06-23T07:49:28.723Z,28.60
2018-06-23T07:52:01.857Z,28.60
2018-06-23T07:54:34.993Z,28.60
2018-06-23T07:57:08.411Z,28.60
2018-06-23T07:59:41.477Z,28.60
2018-06-23T08:02:14.498Z,28.60
2018-06-23T08:04:48.494Z,28.60
2018-06-23T08:07:21.639Z,28.60
2018-06-23T08:09:54.612Z,28.60
2018-06-23T08:12:27.625Z,28.60
2018-06-23T08:15:01.162Z,28.60
2018-06-23T08:17:35.192Z,28.60
2018-06-23T08:20:08.302Z,28.60
2018-06-23T08:22:41.383Z,28.60
2018-06-23T08:25:14.456Z,28.60
2018-06-23T08:27:47.473Z,28.60
2018-06-23T08:30:20.548Z,28.60
2018-06-23T08:32:53.612Z,28.60
2018-06-23T08:35:26.676Z,28.60
2018-06-23T08:37:59.682Z,28.70
2018-06-23T08:40:32.705Z,28.70
2018-06-23T08:45:37.659Z,28.70
2018-06-23T08:48:11.385Z,29.60
2018-06-23T08:50:44.578Z,28.70
2018-06-23T08:53:17.679Z,28.70
2018-06-23T08:55:51.263Z,28.70
2018-06-23T08:58:24.349Z,28.70
2018-06-23T09:00:57.385Z,28.70
2018-06-23T09:03:30.328Z,28.70
2018-06-23T09:06:03.448Z,28.70
2018-06-23T09:08:36.538Z,28.70
2018-06-23T09:11:10.514Z,28.70
2018-06-23T09:13:43.509Z,28.70
2018-06-23T09:16:16.803Z,28.70
2018-06-23T09:18:49.849Z,28.70
2018-06-23T09:21:22.815Z,28.80
2018-06-23T09:23:55.780Z,28.70
2018-06-23T09:26:28.842Z,28.70
2018-06-23T09:29:01.875Z,28.70
2018-06-23T09:31:37.768Z,28.70
2018-06-23T09:34:10.776Z,28.80
2018-06-23T09:36:43.828Z,28.70
2018-06-23T09:41:49.472Z,28.80
2018-06-23T09:44:22.581Z,28.80
2018-06-23T09:46:55.779Z,28.80
2018-06-23T09:49:28.811Z,28.80
2018-06-23T09:52:01.721Z,28.80
2018-06-23T09:54:34.727Z,28.80
2018-06-23T09:57:08.210Z,28.80
2018-06-23T09:59:41.987Z,28.80
2018-06-23T10:02:14.985Z,28.80
2018-06-23T10:04:48.400Z,28.80
2018-06-23T10:07:21.533Z,28.80
2018-06-23T10:12:27.141Z,28.80
2018-06-23T10:15:00.170Z,28.80
2018-06-23T10:17:33.216Z,28.80
2018-06-23T10:20:06.200Z,28.90
2018-06-23T10:22:39.486Z,28.90
2018-06-23T10:25:12.541Z,28.90
2018-06-23T10:27:45.540Z,28.80
2018-06-23T10:30:19.492Z,28.80
2018-06-23T10:35:24.464Z,28.90
2018-06-23T10:37:57.523Z,28.90
2018-06-23T10:40:30.649Z,28.90
2018-06-23T10:43:03.777Z,28.90
2018-06-23T10:45:36.727Z,28.90
2018-06-23T10:48:09.699Z,28.90
2018-06-23T10:50:42.576Z,28.90
2018-06-23T10:53:15.581Z,28.90
2018-06-23T10:55:48.904Z,28.90
2018-06-23T10:58:21.960Z,28.90
2018-06-23T11:00:54.936Z,28.80
2018-06-23T11:03:28.029Z,28.90
2018-06-23T11:06:01.247Z,28.90
2018-06-23T11:08:34.323Z,28.90
2018-06-23T11:11:07.386Z,28.90
2018-06-23T11:13:40.415Z,28.90
2018-06-23T11:16:13.453Z,28.90
2018-06-23T11:18:46.395Z,28.90
2018-06-23T11:21:19.396Z,28.90
2018-06-23T11:26:30.823Z,28.90
2018-06-23T11:29:03.877Z,28.80
2018-06-23T11:31:36.996Z,28.90
2018-06-23T11:34:11.316Z,28.80
2018-06-23T11:36:44.304Z,28.90
2018-06-23T11:39:17.359Z,28.90
2018-06-23T11:41:50.506Z,28.80
2018-06-23T11:44:23.613Z,28.90
2018-06-23T11:46:56.728Z,28.90
2018-06-23T11:49:29.779Z,28.90
2018-06-23T11:52:02.765Z,28.90
2018-06-23T11:54:36.834Z,28.90
2018-06-23T11:57:09.983Z,28.90
2018-06-23T11:59:43.091Z,28.90
2018-06-23T12:02:16.163Z,29.00
2018-06-23T12:04:49.162Z,28.90
2018-06-23T12:07:22.231Z,29.00
2018-06-23T12:09:56.400Z,28.90
2018-06-23T12:12:29.508Z,28.90
2018-06-23T12:17:34.117Z,28.90
2018-06-23T12:20:07.192Z,28.90
2018-06-23T12:22:40.271Z,28.90
2018-06-23T12:25:13.337Z,28.90
2018-06-23T12:27:46.347Z,28.90
2018-06-23T12:30:20.266Z,28.80
2018-06-23T12:32:53.304Z,28.90
2018-06-23T12:35:26.388Z,28.90
2018-06-23T12:37:59.421Z,28.90
2018-06-23T12:40:32.391Z,28.90
2018-06-23T12:43:05.541Z,28.80
2018-06-23T13:21:05.035Z,28.80
2018-06-23T13:23:38.087Z,28.80
2018-06-23T13:26:11.614Z,28.80
2018-06-23T13:28:45.696Z,28.80
2018-06-23T13:31:18.716Z,28.80
2018-06-23T13:33:52.582Z,28.80
2018-06-23T13:36:25.705Z,28.80
2018-06-23T13:38:58.817Z,28.80
2018-06-23T13:41:31.807Z,28.80
2018-06-23T13:44:05.886Z,28.80
2018-06-23T13:46:40.357Z,28.80
2018-06-23T13:49:13.375Z,28.80
2018-06-23T13:51:46.477Z,28.80
2018-06-23T13:54:20.739Z,28.70
2018-06-23T13:56:53.822Z,28.80
2018-06-23T13:59:27.848Z,28.80
2018-06-23T14:02:00.916Z,28.80
2018-06-23T14:04:33.948Z,28.70
2018-06-23T14:07:07.020Z,28.70
2018-06-23T14:09:40.002Z,28.70
2018-06-23T14:12:13.279Z,28.70
2018-06-23T14:14:46.331Z,28.70
2018-06-23T14:17:20.400Z,28.70
2018-06-23T14:19:54.474Z,28.70
2018-06-23T14:22:27.520Z,28.70
2018-06-23T14:25:00.842Z,28.70
2018-06-23T14:27:33.844Z,28.70
2018-06-23T14:30:07.045Z,28.70
2018-06-23T14:32:40.018Z,28.70
2018-06-23T14:35:13.046Z,28.70
2018-06-23T14:37:47.106Z,28.70
2018-06-23T14:40:20.316Z,28.70
2018-06-23T14:42:53.804Z,28.70
2018-06-23T14:45:26.817Z,28.70
2018-06-23T14:47:59.777Z,28.70
2018-06-23T14:50:32.773Z,28.70
2018-06-23T14:53:06.273Z,28.70
2018-06-23T14:55:39.551Z,28.70
2018-06-23T14:58:12.572Z,28.60
2018-06-23T15:00:45.490Z,28.60
2018-06-23T15:03:18.539Z,28.60
2018-06-23T15:05:51.588Z,28.60
2018-06-23T15:08:34.121Z,28.60
2018-06-23T15:11:16.047Z,28.60
2018-06-23T15:13:49.004Z,28.30
2018-06-23T15:16:22.035Z,27.90
2018-06-23T15:18:55.171Z,27.50
2018-06-23T15:21:28.264Z,27.20
2018-06-23T15:24:01.242Z,26.70
2018-06-23T15:26:34.304Z,26.30
2018-06-23T15:29:07.324Z,26.00
2018-06-23T15:31:40.363Z,25.90
2018-06-23T15:34:13.823Z,25.70
2018-06-23T15:36:47.020Z,25.60
2018-06-23T15:39:20.172Z,25.50
2018-06-23T15:41:54.041Z,25.40
2018-06-23T15:44:27.061Z,25.20
2018-06-23T15:47:00.250Z,25.20
2018-06-23T15:49:34.117Z,25.20
2018-06-23T16:21:08.629Z,25.60
2018-06-23T16:23:41.830Z,26.00
2018-06-23T16:26:14.889Z,26.10
2018-06-23T16:28:47.946Z,25.60
2018-06-23T16:31:22.274Z,25.60
2018-06-23T16:33:55.288Z,25.90
2018-06-23T16:36:28.271Z,26.10
2018-06-23T16:39:01.286Z,26.10
2018-06-23T16:41:34.260Z,25.60
2018-06-23T16:44:07.591Z,25.60
2018-06-23T16:46:40.631Z,25.80
2018-06-23T16:49:13.725Z,26.10
2018-06-23T16:51:46.795Z,25.90
2018-06-23T16:54:19.825Z,25.50
2018-06-23T16:59:24.529Z,25.90
2018-06-23T17:01:57.800Z,26.10
2018-06-23T17:04:30.772Z,25.80
2018-06-23T17:07:03.855Z,25.50
2018-06-23T17:12:08.446Z,25.90
2018-06-23T17:14:41.505Z,26.00
2018-06-23T17:17:15.394Z,25.80
2018-06-23T17:19:48.456Z,25.90
2018-06-23T17:22:21.498Z,26.10
2018-06-23T17:24:54.629Z,26.00
2018-06-23T17:27:27.755Z,25.70
2018-06-23T17:30:00.735Z,25.80
2018-06-23T17:32:33.719Z,26.00
2018-06-23T17:35:06.729Z,26.10
2018-06-23T17:37:39.926Z,25.80
2018-06-23T17:40:14.089Z,25.80
2018-06-23T17:42:47.190Z,26.00
2018-06-23T17:45:20.305Z,26.10
2018-06-23T17:47:53.371Z,25.70
2018-06-23T17:50:27.378Z,25.80
2018-06-23T17:58:03.929Z,25.80
2018-06-23T18:00:37.091Z,25.80
2018-06-23T18:03:10.420Z,26.00
2018-06-23T18:05:43.489Z,26.10
2018-06-23T18:08:16.526Z,25.80
2018-06-23T18:10:49.561Z,25.80
2018-06-23T18:13:22.640Z,25.90
2018-06-23T18:15:55.793Z,26.10
2018-06-23T18:18:28.807Z,26.00
2018-06-23T18:21:01.902Z,26.10
2018-06-23T18:23:35.053Z,26.30
2018-06-23T18:26:08.978Z,26.00
2018-06-23T18:28:41.920Z,26.10
2018-06-23T18:31:14.902Z,26.10
2018-06-23T18:33:47.969Z,26.30
2018-06-23T18:36:21.051Z,26.00
2018-06-23T18:38:54.028Z,26.10
2018-06-23T18:41:27.028Z,26.20
2018-06-23T18:44:00.643Z,26.10
2018-06-23T18:46:33.633Z,26.00
2018-06-23T18:49:06.645Z,26.10
2018-06-23T18:51:39.649Z,26.20
2018-06-23T18:54:13.817Z,26.00
2018-06-23T18:56:46.916Z,26.00
2018-06-23T18:59:20.000Z,26.10
2018-06-23T19:01:53.183Z,26.20
2018-06-23T19:04:26.270Z,26.10
2018-06-23T19:06:59.350Z,26.10
2018-06-23T19:09:33.311Z,26.20
2018-06-23T19:12:06.451Z,26.00
2018-06-23T19:14:39.529Z,25.90
2018-06-23T19:17:12.527Z,26.00
2018-06-23T19:19:45.647Z,26.20
2018-06-23T19:22:18.621Z,25.90
2018-06-23T19:24:51.629Z,25.90
2018-06-23T19:27:24.849Z,26.00
2018-06-23T19:29:57.922Z,26.10
2018-06-23T19:32:30.968Z,25.90
2018-06-23T19:35:04.212Z,26.00
2018-06-23T19:37:37.252Z,26.10
2018-06-23T19:40:10.268Z,26.00
2018-06-23T19:42:43.743Z,25.90
2018-06-23T19:45:16.775Z,26.10
2018-06-23T19:47:50.717Z,26.20
2018-06-23T19:50:24.430Z,25.90
2018-06-23T19:52:57.425Z,25.90
2018-06-23T19:55:30.405Z,26.10
2018-06-23T19:58:04.589Z,26.10
2018-06-23T20:00:37.580Z,26.00
2018-06-23T20:05:47.741Z,26.20
2018-06-23T20:08:20.777Z,25.90
2018-06-23T20:10:54.080Z,26.00
2018-06-23T20:16:00.528Z,26.10
2018-06-23T20:18:33.584Z,25.90
2018-06-23T20:21:07.424Z,26.00
2018-06-23T20:23:40.525Z,26.10
2018-06-23T20:26:13.620Z,26.00
2018-06-23T20:28:47.556Z,26.00
2018-06-23T20:31:20.549Z,26.10
2018-06-23T20:33:53.664Z,26.00
2018-06-23T20:36:26.768Z,25.90
2018-06-23T20:38:59.792Z,26.00
2018-06-23T20:41:32.915Z,26.10
2018-06-23T20:44:05.959Z,26.00
2018-06-23T20:46:39.022Z,25.90
2018-06-23T20:49:12.057Z,26.10
2018-06-23T20:51:45.046Z,26.00
2018-06-23T20:54:18.047Z,25.90
2018-06-23T20:56:52.329Z,26.00
2018-06-23T20:59:25.458Z,26.10
2018-06-23T21:01:59.829Z,25.90
2018-06-23T21:04:32.912Z,25.90
2018-06-23T21:07:05.975Z,26.00
2018-06-23T21:09:39.093Z,26.00
2018-06-23T21:12:12.336Z,26.00
2018-06-23T21:14:45.361Z,26.00
2018-06-23T21:17:18.388Z,26.10
2018-06-23T21:19:51.556Z,25.90
2018-06-23T21:22:24.536Z,25.90
2018-06-23T21:24:57.549Z,26.00
2018-06-23T21:27:30.503Z,26.00
2018-06-23T21:30:03.547Z,25.90
2018-06-23T21:32:37.579Z,26.00
2018-06-23T21:35:10.600Z,26.10
2018-06-23T21:37:43.677Z,25.90
2018-06-23T21:40:16.830Z,25.90
2018-06-23T21:42:49.881Z,26.00
2018-06-23T21:45:23.677Z,26.00
2018-06-23T21:47:56.911Z,25.90
2018-06-23T21:50:29.916Z,25.90
2018-06-23T21:53:03.018Z,26.00
2018-06-23T21:55:35.973Z,25.90
2018-06-23T21:58:09.128Z,26.00
2018-06-23T22:00:45.425Z,26.10
2018-06-23T22:03:18.635Z,25.90
2018-06-23T22:05:51.771Z,25.90
2018-06-23T22:08:24.820Z,25.90
2018-06-23T22:10:58.711Z,25.90
2018-06-23T22:16:09.005Z,26.00
2018-06-23T22:18:42.019Z,26.10
2018-06-23T22:21:15.204Z,26.00
2018-06-23T22:23:48.266Z,27.60
2018-06-23T22:26:21.360Z,26.10
2018-06-23T22:28:54.389Z,25.80
2018-06-23T22:31:27.365Z,25.80
2018-06-23T22:34:00.480Z,25.90
2018-06-23T22:36:33.517Z,25.90
2018-06-23T22:39:06.880Z,25.90
2018-06-23T22:41:40.939Z,26.00
2018-06-23T22:44:14.009Z,26.10
2018-06-23T22:46:47.087Z,25.90
2018-06-23T22:49:20.046Z,25.90
2018-06-23T22:51:53.130Z,26.00
2018-06-23T22:56:57.806Z,25.80
2018-06-23T22:59:30.963Z,25.90
2018-06-23T23:02:05.025Z,25.90
2018-06-23T23:04:38.248Z,25.90
2018-06-23T23:07:11.329Z,25.90
2018-06-23T23:09:44.372Z,26.00
2018-06-23T23:12:17.412Z,25.80
2018-06-23T23:14:51.320Z,25.80
2018-06-23T23:17:24.408Z,25.90
2018-06-23T23:19:57.430Z,25.80
2018-06-23T23:22:30.443Z,25.90
2018-06-23T23:25:04.587Z,25.90
2018-06-23T23:27:37.609Z,25.90
2018-06-23T23:30:12.128Z,25.90
2018-06-23T23:32:45.090Z,26.00
2018-06-23T23:35:18.165Z,26.00
2018-06-23T23:37:51.120Z,25.80
2018-06-23T23:40:24.218Z,25.90
2018-06-23T23:42:57.274Z,25.90
2018-06-23T23:45:30.283Z,25.80
2018-06-23T23:48:03.312Z,25.80
2018-06-23T23:50:36.488Z,25.90
2018-06-23T23:53:09.580Z,25.80
2018-06-23T23:55:43.840Z,25.90
2018-06-23T23:58:16.828Z,25.90
